sensor_id;sensor_type;location;lat;lon;timestamp;temperature;humidity
8629;DHT22;4352;49.404;11.092;2022-11-20T00:00:16;0.60;99.90
8629;DHT22;4352;49.404;11.092;2022-11-20T00:02:43;0.60;99.90
8629;DHT22;4352;49.404;11.092;2022-11-20T00:05:09;0.60;99.90
8629;DHT22;4352;49.404;11.092;2022-11-20T00:07:36;0.70;99.90
8629;DHT22;4352;49.404;11.092;2022-11-20T00:10:05;0.70;99.90
8629;DHT22;4352;49.404;11.092;2022-11-20T00:12:32;0.70;99.90
8629;DHT22;4352;49.404;11.092;2022-11-20T00:14:59;0.80;99.90
8629;DHT22;4352;49.404;11.092;2022-11-20T00:17:26;0.80;99.90
8629;DHT22;4352;49.404;11.092;2022-11-20T00:19:52;0.90;99.90
8629;DHT22;4352;49.404;11.092;2022-11-20T00:22:19;0.90;99.90
8629;DHT22;4352;49.404;11.092;2022-11-20T00:24:46;0.90;99.90
8629;DHT22;4352;49.404;11.092;2022-11-20T00:27:14;0.80;99.90
8629;DHT22;4352;49.404;11.092;2022-11-20T00:29:41;0.80;99.90
8629;DHT22;4352;49.404;11.092;2022-11-20T00:32:08;0.80;99.90
8629;DHT22;4352;49.404;11.092;2022-11-20T00:34:35;0.80;99.90
8629;DHT22;4352;49.404;11.092;2022-11-20T00:37:01;0.80;99.90
8629;DHT22;4352;49.404;11.092;2022-11-20T00:39:28;0.80;99.90
8629;DHT22;4352;49.404;11.092;2022-11-20T00:41:55;0.80;99.90
8629;DHT22;4352;49.404;11.092;2022-11-20T00:44:23;0.90;99.90
8629;DHT22;4352;49.404;11.092;2022-11-20T00:46:50;0.90;99.90
8629;DHT22;4352;49.404;11.092;2022-11-20T00:49:17;0.90;99.90
8629;DHT22;4352;49.404;11.092;2022-11-20T00:51:43;0.90;99.90
8629;DHT22;4352;49.404;11.092;2022-11-20T00:54:10;0.90;99.90
8629;DHT22;4352;49.404;11.092;2022-11-20T00:56:37;0.90;99.90
8629;DHT22;4352;49.404;11.092;2022-11-20T00:59:04;0.90;99.90
8629;DHT22;4352;49.404;11.092;2022-11-20T01:01:32;0.90;99.90
8629;DHT22;4352;49.404;11.092;2022-11-20T01:03:59;0.90;99.90
8629;DHT22;4352;49.404;11.092;2022-11-20T01:06:28;1.00;99.90
8629;DHT22;4352;49.404;11.092;2022-11-20T01:08:57;1.00;99.90
8629;DHT22;4352;49.404;11.092;2022-11-20T01:11:26;0.90;99.90
8629;DHT22;4352;49.404;11.092;2022-11-20T01:13:54;1.00;99.90
8629;DHT22;4352;49.404;11.092;2022-11-20T01:16:23;0.90;99.90
8629;DHT22;4352;49.404;11.092;2022-11-20T01:18:54;0.90;99.90
8629;DHT22;4352;49.404;11.092;2022-11-20T01:21:23;1.00;99.90
8629;DHT22;4352;49.404;11.092;2022-11-20T01:23:50;1.00;99.90
8629;DHT22;4352;49.404;11.092;2022-11-20T01:26:19;1.00;99.90
8629;DHT22;4352;49.404;11.092;2022-11-20T01:28:46;1.00;99.90
8629;DHT22;4352;49.404;11.092;2022-11-20T01:31:15;1.00;99.90
8629;DHT22;4352;49.404;11.092;2022-11-20T01:33:42;1.00;99.90
8629;DHT22;4352;49.404;11.092;2022-11-20T01:36:12;1.00;99.90
8629;DHT22;4352;49.404;11.092;2022-11-20T01:38:39;0.90;99.90
8629;DHT22;4352;49.404;11.092;2022-11-20T01:41:08;1.00;99.90
8629;DHT22;4352;49.404;11.092;2022-11-20T01:43:35;1.00;99.90
8629;DHT22;4352;49.404;11.092;2022-11-20T01:46:13;1.00;99.90
8629;DHT22;4352;49.404;11.092;2022-11-20T01:48:45;1.00;99.90
8629;DHT22;4352;49.404;11.092;2022-11-20T01:51:20;1.10;99.90
8629;DHT22;4352;49.404;11.092;2022-11-20T01:53:48;1.00;99.90
8629;DHT22;4352;49.404;11.092;2022-11-20T01:56:16;1.10;99.90
8629;DHT22;4352;49.404;11.092;2022-11-20T01:58:47;1.10;99.90
8629;DHT22;4352;49.404;11.092;2022-11-20T02:01:15;1.00;99.90
8629;DHT22;4352;49.404;11.092;2022-11-20T02:03:42;1.00;99.90
8629;DHT22;4352;49.404;11.092;2022-11-20T02:06:13;1.00;99.90
8629;DHT22;4352;49.404;11.092;2022-11-20T02:08:42;1.00;99.90
8629;DHT22;4352;49.404;11.092;2022-11-20T02:11:09;1.00;99.90
8629;DHT22;4352;49.404;11.092;2022-11-20T02:13:38;1.00;99.90
8629;DHT22;4352;49.404;11.092;2022-11-20T02:16:16;1.00;99.90
8629;DHT22;4352;49.404;11.092;2022-11-20T02:18:44;1.20;99.90
8629;DHT22;4352;49.404;11.092;2022-11-20T02:21:19;1.10;99.90
8629;DHT22;4352;49.404;11.092;2022-11-20T02:24:03;1.10;99.90
8629;DHT22;4352;49.404;11.092;2022-11-20T02:26:33;1.10;99.90
8629;DHT22;4352;49.404;11.092;2022-11-20T02:29:02;1.10;99.90
8629;DHT22;4352;49.404;11.092;2022-11-20T02:31:33;1.20;99.90
8629;DHT22;4352;49.404;11.092;2022-11-20T02:34:00;1.20;99.90
8629;DHT22;4352;49.404;11.092;2022-11-20T02:36:28;1.20;99.90
8629;DHT22;4352;49.404;11.092;2022-11-20T02:38:57;1.20;99.90
8629;DHT22;4352;49.404;11.092;2022-11-20T02:41:32;1.20;99.90
8629;DHT22;4352;49.404;11.092;2022-11-20T02:43:59;1.20;99.90
8629;DHT22;4352;49.404;11.092;2022-11-20T02:46:26;1.20;99.90
8629;DHT22;4352;49.404;11.092;2022-11-20T02:48:53;1.20;99.90
8629;DHT22;4352;49.404;11.092;2022-11-20T02:51:20;1.20;99.90
8629;DHT22;4352;49.404;11.092;2022-11-20T02:53:46;0.90;99.90
8629;DHT22;4352;49.404;11.092;2022-11-20T02:56:13;1.10;99.90
8629;DHT22;4352;49.404;11.092;2022-11-20T02:58:42;1.10;99.90
8629;DHT22;4352;49.404;11.092;2022-11-20T03:01:08;1.10;99.90
8629;DHT22;4352;49.404;11.092;2022-11-20T03:03:35;1.10;99.90
8629;DHT22;4352;49.404;11.092;2022-11-20T03:06:02;1.10;99.90
8629;DHT22;4352;49.404;11.092;2022-11-20T03:08:29;1.00;99.90
8629;DHT22;4352;49.404;11.092;2022-11-20T03:10:56;1.10;99.90
8629;DHT22;4352;49.404;11.092;2022-11-20T03:13:24;1.10;99.90
8629;DHT22;4352;49.404;11.092;2022-11-20T03:15:52;1.10;99.90
8629;DHT22;4352;49.404;11.092;2022-11-20T03:18:19;1.10;99.90
8629;DHT22;4352;49.404;11.092;2022-11-20T03:20:46;1.10;99.90
8629;DHT22;4352;49.404;11.092;2022-11-20T03:23:13;1.20;99.90
8629;DHT22;4352;49.404;11.092;2022-11-20T03:25:40;1.20;99.90
8629;DHT22;4352;49.404;11.092;2022-11-20T03:28:07;1.20;99.90
8629;DHT22;4352;49.404;11.092;2022-11-20T03:30:35;1.20;99.90
8629;DHT22;4352;49.404;11.092;2022-11-20T03:33:03;1.10;99.90
8629;DHT22;4352;49.404;11.092;2022-11-20T03:35:29;1.20;99.90
8629;DHT22;4352;49.404;11.092;2022-11-20T03:37:57;1.10;99.90
8629;DHT22;4352;49.404;11.092;2022-11-20T03:40:24;1.10;99.90
8629;DHT22;4352;49.404;11.092;2022-11-20T03:42:50;1.10;99.90
8629;DHT22;4352;49.404;11.092;2022-11-20T03:45:18;1.20;99.90
8629;DHT22;4352;49.404;11.092;2022-11-20T03:47:45;1.20;99.90
8629;DHT22;4352;49.404;11.092;2022-11-20T03:50:13;1.20;99.90
8629;DHT22;4352;49.404;11.092;2022-11-20T03:52:40;1.20;99.90
8629;DHT22;4352;49.404;11.092;2022-11-20T03:55:08;1.30;99.90
8629;DHT22;4352;49.404;11.092;2022-11-20T03:57:34;1.30;99.90
8629;DHT22;4352;49.404;11.092;2022-11-20T04:00:02;1.30;99.90
8629;DHT22;4352;49.404;11.092;2022-11-20T04:02:29;1.30;99.90
8629;DHT22;4352;49.404;11.092;2022-11-20T04:04:56;1.30;99.90
8629;DHT22;4352;49.404;11.092;2022-11-20T04:07:24;1.30;99.90
8629;DHT22;4352;49.404;11.092;2022-11-20T04:09:51;1.30;99.90
8629;DHT22;4352;49.404;11.092;2022-11-20T04:12:18;1.30;99.90
8629;DHT22;4352;49.404;11.092;2022-11-20T04:14:44;1.30;99.90
8629;DHT22;4352;49.404;11.092;2022-11-20T04:17:11;1.30;99.90
8629;DHT22;4352;49.404;11.092;2022-11-20T04:19:38;1.30;99.90
8629;DHT22;4352;49.404;11.092;2022-11-20T04:22:05;1.30;99.90
8629;DHT22;4352;49.404;11.092;2022-11-20T04:24:33;1.30;99.90
8629;DHT22;4352;49.404;11.092;2022-11-20T04:27:00;1.20;99.90
8629;DHT22;4352;49.404;11.092;2022-11-20T04:29:27;1.30;99.90
8629;DHT22;4352;49.404;11.092;2022-11-20T04:31:53;1.30;99.90
8629;DHT22;4352;49.404;11.092;2022-11-20T04:34:20;1.30;99.90
8629;DHT22;4352;49.404;11.092;2022-11-20T04:36:47;1.30;99.90
8629;DHT22;4352;49.404;11.092;2022-11-20T04:39:14;1.30;99.90
8629;DHT22;4352;49.404;11.092;2022-11-20T04:41:43;1.30;99.90
8629;DHT22;4352;49.404;11.092;2022-11-20T04:44:10;1.30;99.90
8629;DHT22;4352;49.404;11.092;2022-11-20T04:46:39;1.30;99.90
8629;DHT22;4352;49.404;11.092;2022-11-20T04:49:06;1.30;99.90
8629;DHT22;4352;49.404;11.092;2022-11-20T04:51:33;1.30;99.90
8629;DHT22;4352;49.404;11.092;2022-11-20T04:54:00;1.30;99.90
8629;DHT22;4352;49.404;11.092;2022-11-20T04:56:27;1.30;99.90
8629;DHT22;4352;49.404;11.092;2022-11-20T04:58:59;1.40;99.90
8629;DHT22;4352;49.404;11.092;2022-11-20T05:01:26;1.40;99.90
8629;DHT22;4352;49.404;11.092;2022-11-20T05:03:53;1.50;99.90
8629;DHT22;4352;49.404;11.092;2022-11-20T05:06:22;1.50;99.90
8629;DHT22;4352;49.404;11.092;2022-11-20T05:08:49;1.50;99.90
8629;DHT22;4352;49.404;11.092;2022-11-20T05:11:17;1.40;99.90
8629;DHT22;4352;49.404;11.092;2022-11-20T05:13:46;1.50;99.90
8629;DHT22;4352;49.404;11.092;2022-11-20T05:16:16;1.40;99.90
8629;DHT22;4352;49.404;11.092;2022-11-20T05:18:43;1.40;99.90
8629;DHT22;4352;49.404;11.092;2022-11-20T05:21:11;1.50;99.90
8629;DHT22;4352;49.404;11.092;2022-11-20T05:23:38;1.40;99.90
8629;DHT22;4352;49.404;11.092;2022-11-20T05:26:06;1.40;99.90
8629;DHT22;4352;49.404;11.092;2022-11-20T05:28:34;1.40;99.90
8629;DHT22;4352;49.404;11.092;2022-11-20T05:31:05;1.50;99.90
8629;DHT22;4352;49.404;11.092;2022-11-20T05:33:34;1.40;99.90
8629;DHT22;4352;49.404;11.092;2022-11-20T05:36:01;1.40;99.90
8629;DHT22;4352;49.404;11.092;2022-11-20T05:38:28;1.40;99.90
8629;DHT22;4352;49.404;11.092;2022-11-20T05:41:02;1.50;99.90
8629;DHT22;4352;49.404;11.092;2022-11-20T05:43:32;1.50;99.90
8629;DHT22;4352;49.404;11.092;2022-11-20T05:45:59;1.50;99.90
8629;DHT22;4352;49.404;11.092;2022-11-20T05:48:26;1.40;99.90
8629;DHT22;4352;49.404;11.092;2022-11-20T05:50:54;1.60;99.90
8629;DHT22;4352;49.404;11.092;2022-11-20T05:53:21;1.50;99.90
8629;DHT22;4352;49.404;11.092;2022-11-20T05:55:56;1.50;99.90
8629;DHT22;4352;49.404;11.092;2022-11-20T05:58:23;1.50;99.90
8629;DHT22;4352;49.404;11.092;2022-11-20T06:00:50;1.40;99.90
8629;DHT22;4352;49.404;11.092;2022-11-20T06:03:16;1.50;99.90
8629;DHT22;4352;49.404;11.092;2022-11-20T06:05:43;1.60;99.90
8629;DHT22;4352;49.404;11.092;2022-11-20T06:08:11;1.50;99.90
8629;DHT22;4352;49.404;11.092;2022-11-20T06:10:38;1.40;99.90
8629;DHT22;4352;49.404;11.092;2022-11-20T06:13:05;1.50;99.90
8629;DHT22;4352;49.404;11.092;2022-11-20T06:15:32;1.50;99.90
8629;DHT22;4352;49.404;11.092;2022-11-20T06:17:58;1.50;99.90
8629;DHT22;4352;49.404;11.092;2022-11-20T06:20:25;1.50;99.90
8629;DHT22;4352;49.404;11.092;2022-11-20T06:22:52;1.50;99.90
8629;DHT22;4352;49.404;11.092;2022-11-20T06:25:20;1.50;99.90
8629;DHT22;4352;49.404;11.092;2022-11-20T06:27:47;1.60;99.90
8629;DHT22;4352;49.404;11.092;2022-11-20T06:30:14;1.60;99.90
8629;DHT22;4352;49.404;11.092;2022-11-20T06:32:41;1.60;99.90
8629;DHT22;4352;49.404;11.092;2022-11-20T06:35:08;1.60;99.90
8629;DHT22;4352;49.404;11.092;2022-11-20T06:37:35;1.50;99.90
8629;DHT22;4352;49.404;11.092;2022-11-20T06:40:03;1.60;99.90
8629;DHT22;4352;49.404;11.092;2022-11-20T06:42:32;1.50;99.90
8629;DHT22;4352;49.404;11.092;2022-11-20T06:44:59;1.50;99.90
8629;DHT22;4352;49.404;11.092;2022-11-20T06:47:26;1.50;99.90
8629;DHT22;4352;49.404;11.092;2022-11-20T06:49:52;1.50;99.90
8629;DHT22;4352;49.404;11.092;2022-11-20T06:52:19;1.60;99.90
8629;DHT22;4352;49.404;11.092;2022-11-20T06:54:46;1.60;99.90
8629;DHT22;4352;49.404;11.092;2022-11-20T06:57:13;1.60;99.90
8629;DHT22;4352;49.404;11.092;2022-11-20T06:59:41;1.60;99.90
8629;DHT22;4352;49.404;11.092;2022-11-20T07:02:09;1.60;99.90
8629;DHT22;4352;49.404;11.092;2022-11-20T07:04:37;1.60;99.90
8629;DHT22;4352;49.404;11.092;2022-11-20T07:07:03;1.60;99.90
8629;DHT22;4352;49.404;11.092;2022-11-20T07:09:31;1.70;99.90
8629;DHT22;4352;49.404;11.092;2022-11-20T07:11:58;1.60;99.90
8629;DHT22;4352;49.404;11.092;2022-11-20T07:14:25;1.60;99.90
8629;DHT22;4352;49.404;11.092;2022-11-20T07:16:53;1.60;99.90
8629;DHT22;4352;49.404;11.092;2022-11-20T07:19:19;1.60;99.90
8629;DHT22;4352;49.404;11.092;2022-11-20T07:21:46;1.60;99.90
8629;DHT22;4352;49.404;11.092;2022-11-20T07:24:13;1.60;99.90
8629;DHT22;4352;49.404;11.092;2022-11-20T07:26:40;1.70;99.90
8629;DHT22;4352;49.404;11.092;2022-11-20T07:29:06;1.60;99.90
8629;DHT22;4352;49.404;11.092;2022-11-20T07:31:33;1.60;99.90
8629;DHT22;4352;49.404;11.092;2022-11-20T07:34:02;1.60;99.90
8629;DHT22;4352;49.404;11.092;2022-11-20T07:36:28;1.70;99.90
8629;DHT22;4352;49.404;11.092;2022-11-20T07:38:55;1.70;99.90
8629;DHT22;4352;49.404;11.092;2022-11-20T07:41:22;1.80;99.90
8629;DHT22;4352;49.404;11.092;2022-11-20T07:43:49;1.80;99.90
8629;DHT22;4352;49.404;11.092;2022-11-20T07:46:15;1.90;99.90
8629;DHT22;4352;49.404;11.092;2022-11-20T07:48:42;1.90;99.90
8629;DHT22;4352;49.404;11.092;2022-11-20T07:51:10;1.90;99.90
8629;DHT22;4352;49.404;11.092;2022-11-20T07:53:37;1.90;99.90
8629;DHT22;4352;49.404;11.092;2022-11-20T07:56:04;2.00;99.90
8629;DHT22;4352;49.404;11.092;2022-11-20T07:58:31;2.00;99.90
8629;DHT22;4352;49.404;11.092;2022-11-20T08:01:03;2.00;99.90
8629;DHT22;4352;49.404;11.092;2022-11-20T08:03:30;2.00;99.90
8629;DHT22;4352;49.404;11.092;2022-11-20T08:05:58;2.10;99.90
